Time;durP1;ratioP1;P1;durP2;ratioP2;P2;SDS_P1;SDS_P2;PMS_P1;PMS_P2;Temp;Humidity;BMP_temperature;BMP_pressure;BME280_temperature;BME280_humidity;BME280_pressure;Samples;Min_cycle;Max_cycle;Signal;HPM_P1;HPM_P2
2021/03/11 00:01:05;;;;;;;8.75;7.92;;;;;;;-2.36;88.91;99713.53;1699571;82;21107;-57
2021/03/11 00:03:33;;;;;;;10.60;9.33;;;;;;;-2.34;88.88;99714.74;1695378;82;21662;-58
2021/03/11 00:06:16;;;;;;;10.35;9.28;;;;;;;-2.34;88.85;99710.38;1693941;82;21277;-56
2021/03/11 00:08:43;;;;;;;11.43;9.00;;;;;;;-2.32;88.75;99712.92;1692729;82;21128;-58
2021/03/11 00:11:11;;;;;;;11.60;10.40;;;;;;;-2.31;88.72;99717.19;1697627;82;21239;-57
2021/03/11 00:13:39;;;;;;;12.33;9.55;;;;;;;-2.31;88.68;99719.34;1692237;82;21148;-56
2021/03/11 00:16:06;;;;;;;10.48;9.38;;;;;;;-2.30;88.66;99714.97;1692358;82;21517;-57
2021/03/11 00:18:34;;;;;;;13.18;10.38;;;;;;;-2.30;88.58;99710.61;1693480;82;21216;-57
2021/03/11 00:21:01;;;;;;;10.68;9.58;;;;;;;-2.29;88.49;99713.57;1693954;82;21189;-57
2021/03/11 00:23:31;;;;;;;11.60;9.78;;;;;;;-2.26;88.40;99713.86;1691058;82;21005;-57
2021/03/11 00:25:59;;;;;;;12.35;10.98;;;;;;;-2.27;88.30;99718.72;1698810;82;21056;-57
2021/03/11 00:28:26;;;;;;;12.00;10.80;;;;;;;-2.26;88.31;99713.86;1701213;82;21136;-57
2021/03/11 00:30:54;;;;;;;10.08;9.03;;;;;;;-2.26;88.25;99709.50;1701856;82;22086;-57
2021/03/11 00:33:22;;;;;;;10.58;9.28;;;;;;;-2.25;88.18;99712.50;1696109;82;21183;-57
2021/03/11 00:35:50;;;;;;;10.45;9.30;;;;;;;-2.25;88.13;99710.34;1696451;82;21114;-57
2021/03/11 00:38:17;;;;;;;11.57;10.38;;;;;;;-2.24;88.15;99707.64;1671599;84;21020;-56
2021/03/11 00:40:45;;;;;;;12.23;9.95;;;;;;;-2.22;88.15;99712.78;1669876;84;21068;-57
2021/03/11 00:43:14;;;;;;;11.25;10.15;;;;;;;-2.20;88.16;99709.63;1702180;84;21387;-57
2021/03/11 00:45:47;;;;;;;11.80;10.38;;;;;;;-2.17;88.10;99704.25;1697209;84;21584;-57
2021/03/11 00:48:11;;;;;;;12.28;9.80;;;;;;;-2.18;87.99;99701.25;1647155;84;21146;-57
2021/03/11 00:50:41;;;;;;;13.20;9.78;;;;;;;-2.19;87.97;99699.59;1680518;83;21185;-57
2021/03/11 00:53:09;;;;;;;13.35;10.25;;;;;;;-2.19;87.95;99699.10;1683736;82;21215;-58
2021/03/11 00:55:38;;;;;;;10.82;9.43;;;;;;;-2.17;87.91;99699.03;1677124;82;21383;-58
2021/03/11 00:58:05;;;;;;;11.90;10.45;;;;;;;-2.17;87.80;99697.73;1677804;82;20964;-58
2021/03/11 01:00:33;;;;;;;11.45;10.35;;;;;;;-2.17;87.68;99697.27;1675869;83;20971;-58
2021/03/11 01:03:24;;;;;;;13.50;11.13;;;;;;;-2.14;87.64;99699.69;1814421;77;26177;-58
2021/03/11 01:05:55;;;;;;;11.45;10.28;;;;;;;-2.16;87.58;99699.39;1787504;79;20997;-58
2021/03/11 01:08:27;;;;;;;11.55;9.73;;;;;;;-2.17;87.53;99705.55;1789579;78;21199;-57
2021/03/11 01:10:55;;;;;;;11.12;10.03;;;;;;;-2.18;87.49;99696.89;1786410;79;21029;-56
2021/03/11 01:13:22;;;;;;;12.90;10.95;;;;;;;-2.17;87.49;99693.37;1790263;79;20914;-57
2021/03/11 01:15:50;;;;;;;11.60;9.85;;;;;;;-2.17;87.49;99691.22;1787350;79;20922;-58
2021/03/11 01:18:17;;;;;;;12.55;10.82;;;;;;;-2.19;87.40;99687.86;1784605;79;21562;-57
2021/03/11 01:20:47;;;;;;;13.32;10.58;;;;;;;-2.22;87.44;99681.05;1788235;79;21201;-58
2021/03/11 01:23:14;;;;;;;11.93;10.68;;;;;;;-2.20;87.42;99683.11;1786724;77;20973;-58
2021/03/11 01:25:42;;;;;;;12.55;10.75;;;;;;;-2.21;87.37;99682.72;1790026;77;21519;-58
2021/03/11 01:28:09;;;;;;;10.50;9.50;;;;;;;-2.23;87.36;99673.30;1817176;77;21041;-58
2021/03/11 01:30:36;;;;;;;11.75;10.60;;;;;;;-2.23;87.39;99672.00;1754997;80;20979;-58
2021/03/11 01:33:05;;;;;;;12.78;11.10;;;;;;;-2.25;87.40;99669.95;1750444;80;21366;-58
2021/03/11 01:35:33;;;;;;;12.33;11.00;;;;;;;-2.29;87.51;99669.73;1748189;81;21514;-58
2021/03/11 01:38:00;;;;;;;12.53;11.08;;;;;;;-2.30;87.69;99669.37;1769829;80;21525;-58
2021/03/11 01:40:28;;;;;;;12.58;10.65;;;;;;;-2.31;87.71;99667.67;1750467;79;21039;-58
2021/03/11 01:42:56;;;;;;;11.65;10.40;;;;;;;-2.31;87.80;99665.91;1779009;80;20992;-58
2021/03/11 01:45:23;;;;;;;12.37;11.18;;;;;;;-2.31;87.84;99655.95;1765703;80;21384;-58
2021/03/11 01:47:51;;;;;;;11.80;10.55;;;;;;;-2.30;87.89;99661.09;1764071;80;21041;-58
2021/03/11 01:50:19;;;;;;;12.07;10.40;;;;;;;-2.29;87.88;99664.52;1777707;80;20974;-58
2021/03/11 01:52:46;;;;;;;17.12;13.28;;;;;;;-2.28;87.97;99654.48;1760320;79;21135;-58
2021/03/11 01:55:14;;;;;;;13.00;11.65;;;;;;;-2.25;87.92;99656.92;1713626;82;20959;-58
2021/03/11 01:57:42;;;;;;;12.55;11.18;;;;;;;-2.28;87.95;99650.11;1742374;80;21447;-58
2021/03/11 02:00:11;;;;;;;13.48;11.57;;;;;;;-2.29;88.01;99647.58;1760807;80;21003;-58
2021/03/11 02:02:44;;;;;;;14.93;11.78;;;;;;;-2.30;88.06;99644.61;1773581;80;21087;-58
2021/03/11 02:05:15;;;;;;;13.75;12.20;;;;;;;-2.33;88.21;99635.66;1804419;78;20962;-58
2021/03/11 02:07:43;;;;;;;15.03;12.23;;;;;;;-2.35;88.40;99638.36;1837512;78;21105;-58
2021/03/11 02:10:14;;;;;;;13.03;11.57;;;;;;;-2.36;88.55;99641.03;1759573;80;21357;-58
2021/03/11 02:13:11;;;;;;;11.78;10.58;;;;;;;-2.36;88.60;99628.00;1750236;81;21011;-58
2021/03/11 02:16:20;;;;;;;11.88;10.70;;;;;;;-2.36;88.68;99635.82;1750902;80;21157;-57
2021/03/11 02:18:55;;;;;;;12.93;11.63;;;;;;;-2.38;89.04;99633.77;1726995;82;21138;-58
2021/03/11 02:21:43;;;;;;;15.43;12.50;;;;;;;-2.42;89.12;99627.88;1725770;81;21171;-59
2021/03/11 02:24:47;;;;;;;15.30;11.90;;;;;;;-2.42;89.39;99628.37;1727682;81;21349;-57
2021/03/11 02:27:37;;;;;;;13.93;12.28;;;;;;;-2.44;89.55;99634.10;1773502;78;21041;-57
2021/03/11 02:30:06;;;;;;;13.25;11.95;;;;;;;-2.46;89.66;99624.23;1775425;78;21029;-57
2021/03/11 02:32:33;;;;;;;14.13;12.28;;;;;;;-2.48;89.83;99620.89;1694210;82;20947;-58
2021/03/11 02:35:01;;;;;;;12.93;11.53;;;;;;;-2.50;90.00;99617.05;1802800;78;20922;-57
2021/03/11 02:37:43;;;;;;;15.10;11.93;;;;;;;-2.52;90.20;99615.84;1807380;77;21354;-58
2021/03/11 02:40:18;;;;;;;12.43;11.12;;;;;;;-2.51;90.28;99617.98;1797658;78;21511;-58
2021/03/11 02:42:46;;;;;;;13.85;11.25;;;;;;;-2.53;90.39;99616.75;1725065;81;21153;-58
2021/03/11 02:45:17;;;;;;;13.68;11.38;;;;;;;-2.52;90.55;99614.99;1783082;78;20943;-58
2021/03/11 02:47:45;;;;;;;12.90;10.67;;;;;;;-2.56;90.64;99606.98;1793640;77;21124;-58
2021/03/11 02:50:12;;;;;;;13.62;11.40;;;;;;;-2.54;90.69;99618.16;1722295;80;21458;-58
2021/03/11 02:52:40;;;;;;;12.80;11.50;;;;;;;-2.54;90.67;99610.34;1772674;79;20998;-58
2021/03/11 02:55:09;;;;;;;13.40;11.90;;;;;;;-2.55;90.74;99612.09;1768247;79;20974;-58
2021/03/11 02:57:37;;;;;;;13.10;11.53;;;;;;;-2.57;90.79;99611.35;1722597;80;21145;-58
2021/03/11 03:00:09;;;;;;;13.98;11.28;;;;;;;-2.61;90.84;99612.43;1783034;78;21120;-57
2021/03/11 03:02:37;;;;;;;14.00;11.45;;;;;;;-2.59;90.84;99614.97;1790779;77;21357;-58
2021/03/11 03:05:06;;;;;;;12.53;10.20;;;;;;;-2.59;90.82;99624.09;1744066;80;21616;-59
2021/03/11 03:07:34;;;;;;;15.98;11.53;;;;;;;-2.62;90.83;99615.98;1745668;82;20938;-58
2021/03/11 03:10:01;;;;;;;13.48;12.07;;;;;;;-2.60;90.77;99624.54;1745869;80;21032;-59
2021/03/11 03:12:29;;;;;;;13.03;11.33;;;;;;;-2.60;90.81;99615.42;1744472;79;20953;-56
2021/03/11 03:14:57;;;;;;;15.75;11.40;;;;;;;-2.60;90.81;99615.42;1753044;80;21387;-57
2021/03/11 03:17:24;;;;;;;12.15;10.80;;;;;;;-2.59;90.77;99609.76;1721724;80;21132;-57
2021/03/11 03:19:52;;;;;;;17.35;11.55;;;;;;;-2.61;90.88;99615.03;1764987;80;20960;-57
2021/03/11 03:22:19;;;;;;;12.28;10.90;;;;;;;-2.60;90.86;99615.88;1733823;80;20946;-56
2021/03/11 03:24:47;;;;;;;15.25;11.53;;;;;;;-2.61;90.79;99604.61;1747039;79;21108;-58
2021/03/11 03:27:15;;;;;;;13.38;10.78;;;;;;;-2.61;90.80;99612.92;1789169;79;21379;-58
2021/03/11 03:29:42;;;;;;;15.18;11.38;;;;;;;-2.61;90.61;99605.11;1783765;79;21076;-57
2021/03/11 03:32:10;;;;;;;13.38;11.63;;;;;;;-2.64;90.44;99602.20;1782552;79;20883;-57
2021/03/11 03:34:38;;;;;;;16.87;12.20;;;;;;;-2.68;90.38;99601.13;1784207;79;20997;-57
2021/03/11 03:37:06;;;;;;;15.58;12.07;;;;;;;-2.68;90.33;99605.89;1769417;79;21146;-57
2021/03/11 03:39:34;;;;;;;13.58;12.15;;;;;;;-2.66;90.38;99605.33;1768908;79;21356;-57
2021/03/11 03:42:01;;;;;;;15.13;12.95;;;;;;;-2.65;90.20;99599.21;1770533;79;20964;-57
2021/03/11 03:44:33;;;;;;;14.10;12.00;;;;;;;-2.66;90.20;99607.94;1802047;79;20990;-58
2021/03/11 03:47:00;;;;;;;14.30;11.83;;;;;;;-2.68;90.35;99600.67;1772773;79;21521;-58
2021/03/11 03:49:28;;;;;;;16.48;11.83;;;;;;;-2.69;90.40;99602.92;1776655;79;21122;-58
2021/03/11 03:51:56;;;;;;;18.12;13.18;;;;;;;-2.69;90.40;99621.61;1786546;79;21206;-58
2021/03/11 03:54:32;;;;;;;15.28;12.05;;;;;;;-2.70;90.34;99623.37;1767576;79;20997;-58
2021/03/11 03:57:02;;;;;;;14.63;11.90;;;;;;;-2.73;89.99;99614.42;1782321;79;21009;-58
2021/03/11 03:59:34;;;;;;;15.10;11.03;;;;;;;-2.73;89.99;99614.42;1766792;79;21118;-59
2021/03/11 04:02:04;;;;;;;15.18;11.22;;;;;;;-2.74;90.10;99629.66;1763544;78;21099;-57
2021/03/11 04:04:37;;;;;;;16.00;12.00;;;;;;;-2.75;90.06;99618.88;1787818;79;22134;-57
2021/03/11 04:07:10;;;;;;;17.75;13.75;;;;;;;-2.73;90.05;99631.34;1795476;79;21614;-57
2021/03/11 04:09:40;;;;;;;13.83;12.33;;;;;;;-2.74;89.96;99620.53;1780678;79;21562;-58
2021/03/11 04:12:10;;;;;;;12.07;10.20;;;;;;;-2.72;89.83;99623.92;1790532;79;20962;-58
2021/03/11 04:14:38;;;;;;;15.03;11.93;;;;;;;-2.74;89.75;99617.94;1789941;79;21139;-59
2021/03/11 04:17:06;;;;;;;12.03;10.18;;;;;;;-2.77;89.69;99622.03;1781525;79;21357;-57
2021/03/11 04:19:37;;;;;;;14.30;11.78;;;;;;;-2.79;89.50;99622.55;1796777;79;21561;-57
2021/03/11 04:22:05;;;;;;;13.48;11.35;;;;;;;-2.85;89.47;99622.91;1782987;79;21722;-57
2021/03/11 04:24:33;;;;;;;12.30;10.03;;;;;;;-2.89;89.61;99623.98;1811786;79;21167;-57
2021/03/11 04:27:05;;;;;;;12.93;11.18;;;;;;;-2.90;89.70;99618.41;1791174;79;20909;-57
2021/03/11 04:29:34;;;;;;;14.03;10.98;;;;;;;-2.91;89.81;99619.33;1813867;79;20991;-56
2021/03/11 04:32:04;;;;;;;14.50;12.35;;;;;;;-2.93;89.77;99613.37;1814128;78;21054;-57
2021/03/11 04:34:31;;;;;;;13.08;11.33;;;;;;;-2.95;89.71;99628.23;1782619;79;21124;-57
2021/03/11 04:36:59;;;;;;;13.62;12.03;;;;;;;-2.99;89.63;99621.50;1755024;79;20989;-58
2021/03/11 04:39:26;;;;;;;14.40;12.73;;;;;;;-3.01;89.85;99615.55;1773681;79;20978;-58
2021/03/11 04:41:53;;;;;;;12.55;10.05;;;;;;;-3.02;89.92;99613.84;1809030;79;21438;-57
2021/03/11 04:44:23;;;;;;;13.90;11.25;;;;;;;-2.99;90.17;99615.45;1776616;79;20976;-58
2021/03/11 04:46:50;;;;;;;11.30;9.78;;;;;;;-2.99;90.17;99615.45;1797741;79;21136;-57
2021/03/11 04:49:18;;;;;;;12.68;10.95;;;;;;;-2.99;89.83;99607.18;1807848;79;21009;-57
2021/03/11 04:51:46;;;;;;;12.93;10.65;;;;;;;-2.98;89.75;99606.27;1787178;79;21025;-57
2021/03/11 04:54:14;;;;;;;13.45;10.25;;;;;;;-2.96;89.72;99610.92;1779523;79;21379;-57
2021/03/11 04:56:44;;;;;;;16.25;11.63;;;;;;;-2.97;89.43;99602.73;1793842;79;20946;-58
2021/03/11 04:59:11;;;;;;;12.75;10.40;;;;;;;-3.01;89.33;99609.03;1780829;79;21009;-59
2021/03/11 05:01:45;;;;;;;14.03;11.65;;;;;;;-3.03;89.27;99604.37;1784479;77;21080;-58
2021/03/11 05:04:13;;;;;;;13.22;10.53;;;;;;;-3.09;89.44;99596.89;1774766;79;21096;-58
2021/03/11 05:06:40;;;;;;;16.02;10.68;;;;;;;-3.06;89.70;99608.44;1781848;79;21199;-58
2021/03/11 05:09:08;;;;;;;12.75;11.22;;;;;;;-3.06;89.43;99603.69;1771183;79;20998;-60
2021/03/11 05:11:35;;;;;;;13.88;11.28;;;;;;;-3.06;89.47;99598.03;1778240;79;21020;-58
2021/03/11 05:14:03;;;;;;;15.93;11.55;;;;;;;-3.08;89.26;99589.47;1790107;79;21132;-61
2021/03/11 05:16:30;;;;;;;12.70;9.80;;;;;;;-3.08;89.26;99589.47;1775118;79;21179;-59
2021/03/11 05:18:58;;;;;;;14.45;11.85;;;;;;;-3.07;89.43;99598.09;1793887;79;21552;-59
2021/03/11 05:21:26;;;;;;;13.80;11.15;;;;;;;-3.07;89.43;99598.09;1789378;79;20978;-59
2021/03/11 05:23:55;;;;;;;15.43;11.57;;;;;;;-3.10;89.42;99583.48;1777465;78;21159;-60
2021/03/11 05:26:22;;;;;;;15.98;10.72;;;;;;;-3.08;89.40;99585.56;1806055;79;21097;-59
2021/03/11 05:28:50;;;;;;;13.95;10.72;;;;;;;-3.06;89.38;99596.73;1804352;79;20936;-58
2021/03/11 05:31:17;;;;;;;12.28;10.48;;;;;;;-3.06;89.18;99577.21;1766480;79;21405;-59
2021/03/11 05:33:46;;;;;;;13.13;11.20;;;;;;;-3.06;89.27;99592.83;1765141;79;21081;-60
2021/03/11 05:36:13;;;;;;;14.55;11.20;;;;;;;-3.04;89.24;99583.16;1786323;79;21074;-60
2021/03/11 05:38:45;;;;;;;13.32;10.85;;;;;;;-3.05;89.13;99584.08;1785882;79;21065;-60
2021/03/11 05:41:13;;;;;;;11.28;9.98;;;;;;;-3.04;89.01;99574.51;1780425;79;21468;-58
2021/03/11 05:43:42;;;;;;;12.65;9.90;;;;;;;-3.04;89.08;99590.97;1766597;79;21324;-59
2021/03/11 05:46:10;;;;;;;12.88;10.63;;;;;;;-3.03;89.14;99592.67;1735480;82;21140;-58
2021/03/11 05:48:41;;;;;;;11.40;10.38;;;;;;;-2.95;89.04;99587.89;1752881;81;21101;-58
2021/03/11 05:51:09;;;;;;;13.15;10.28;;;;;;;-2.95;89.04;99587.89;1731958;82;21030;-59
2021/03/11 05:53:38;;;;;;;13.72;11.40;;;;;;;-2.85;88.38;99603.38;1791974;78;21637;-61
2021/03/11 05:56:07;;;;;;;12.18;10.03;;;;;;;-2.85;88.38;99603.38;1799265;78;21547;-57
2021/03/11 05:58:34;;;;;;;12.05;9.90;;;;;;;-2.83;88.27;99606.73;1723971;81;21001;-60
2021/03/11 06:01:03;;;;;;;12.60;10.48;;;;;;;-2.80;88.14;99616.14;1779689;78;21044;-59
2021/03/11 06:03:34;;;;;;;11.95;10.23;;;;;;;-2.80;87.76;99607.88;1731011;81;21132;-59
2021/03/11 06:06:01;;;;;;;13.80;10.35;;;;;;;-2.77;87.67;99609.47;1712122;81;21148;-57
2021/03/11 06:08:29;;;;;;;15.30;10.30;;;;;;;-2.77;87.67;99609.47;1761031;79;21226;-66
2021/03/11 06:10:57;;;;;;;14.40;10.28;;;;;;;-2.78;88.03;99607.32;1777231;78;21135;-61
2021/03/11 06:13:25;;;;;;;11.22;9.98;;;;;;;-2.75;87.98;99616.27;1724309;81;21654;-59
2021/03/11 06:16:08;;;;;;;14.87;9.63;;;;;;;-2.72;87.72;99626.98;1757604;81;21114;-59
2021/03/11 06:18:36;;;;;;;13.00;10.38;;;;;;;-2.70;87.72;99614.71;1757590;81;21108;-59
2021/03/11 06:21:05;;;;;;;12.25;9.63;;;;;;;-2.66;87.60;99622.27;1757562;80;21392;-59
2021/03/11 06:23:32;;;;;;;18.20;10.38;;;;;;;-2.62;87.21;99619.88;1727496;80;21254;-60
2021/03/11 06:26:00;;;;;;;13.28;11.00;;;;;;;-2.60;86.63;99625.84;1757556;80;21136;-59
2021/03/11 06:28:52;;;;;;;14.65;11.38;;;;;;;-2.59;86.59;99621.02;1757532;80;21166;-61
2021/03/11 06:31:25;;;;;;;11.50;9.75;;;;;;;-2.57;86.43;99624.38;1776075;79;21123;-60
2021/03/11 06:33:56;;;;;;;13.30;10.48;;;;;;;-2.52;86.14;99639.29;1776332;79;22263;-59
2021/03/11 06:36:26;;;;;;;11.73;10.05;;;;;;;-2.50;85.99;99632.67;1757599;79;21080;-59
2021/03/11 06:38:56;;;;;;;15.10;10.60;;;;;;;-2.46;85.92;99621.63;1758052;78;21689;-61
2021/03/11 06:41:23;;;;;;;11.65;9.48;;;;;;;-2.40;85.83;99631.27;1766137;79;20950;-59
2021/03/11 06:43:59;;;;;;;12.82;10.65;;;;;;;-2.37;85.46;99628.95;1757746;79;20934;-61
2021/03/11 06:46:28;;;;;;;13.50;10.00;;;;;;;-2.39;85.56;99643.80;1757826;80;21436;-60
2021/03/11 06:49:09;;;;;;;17.00;10.08;;;;;;;-2.34;85.44;99643.09;1757583;79;21648;-61
2021/03/11 06:51:37;;;;;;;12.20;9.80;;;;;;;-2.32;85.11;99641.26;1766087;79;21598;-61
2021/03/11 06:54:08;;;;;;;12.90;10.08;;;;;;;-2.25;85.02;99653.01;1752803;79;21146;-60
2021/03/11 06:56:42;;;;;;;13.88;10.80;;;;;;;-2.21;84.79;99641.02;1757669;80;21565;-59
2021/03/11 06:59:09;;;;;;;11.73;10.50;;;;;;;-2.17;84.63;99649.05;1757640;79;21371;-60
2021/03/11 07:01:52;;;;;;;13.93;10.85;;;;;;;-2.12;84.37;99652.70;1757606;79;21099;-59
2021/03/11 07:04:23;;;;;;;12.60;10.45;;;;;;;-2.11;84.26;99642.66;1752539;79;21547;-60
2021/03/11 07:06:51;;;;;;;11.60;9.55;;;;;;;-2.14;83.95;99656.67;1767622;79;21125;-60
2021/03/11 07:09:19;;;;;;;15.08;9.88;;;;;;;-2.18;83.89;99655.64;1795650;78;21116;-60
2021/03/11 07:11:53;;;;;;;11.68;10.35;;;;;;;-2.20;83.88;99673.14;1792329;79;21385;-59
2021/03/11 07:14:28;;;;;;;11.63;9.57;;;;;;;-2.20;83.84;99662.71;1796744;79;21160;-59
2021/03/11 07:16:55;;;;;;;13.72;10.53;;;;;;;-2.18;83.86;99659.55;1784093;79;21633;-59
2021/03/11 07:19:22;;;;;;;11.05;9.95;;;;;;;-2.18;83.86;99666.91;1763464;79;21143;-60
2021/03/11 07:21:53;;;;;;;11.43;9.78;;;;;;;-2.17;83.78;99665.15;1793585;79;21092;-60
2021/03/11 07:24:37;;;;;;;10.82;9.23;;;;;;;-2.16;83.72;99658.53;1784104;79;21200;-60
2021/03/11 07:27:07;;;;;;;11.28;9.53;;;;;;;-2.10;83.77;99665.17;1784054;79;21156;-60
2021/03/11 07:29:35;;;;;;;15.50;10.35;;;;;;;-2.02;83.62;99676.02;1796512;79;21103;-59
2021/03/11 07:32:06;;;;;;;14.03;10.63;;;;;;;-1.99;83.24;99671.93;1793558;79;20945;-60
2021/03/11 07:34:36;;;;;;;14.63;11.00;;;;;;;-2.02;83.17;99666.88;1784107;79;21144;-60
2021/03/11 07:37:04;;;;;;;12.20;10.35;;;;;;;-2.07;83.38;99666.31;1784109;79;21193;-58
2021/03/11 07:39:36;;;;;;;12.35;10.23;;;;;;;-2.11;83.54;99661.72;1784116;79;20898;-59
2021/03/11 07:42:06;;;;;;;10.90;9.75;;;;;;;-2.12;83.66;99661.36;1784180;79;21467;-59
2021/03/11 07:44:34;;;;;;;10.68;9.58;;;;;;;-2.10;83.93;99667.33;1807173;79;21053;-60
2021/03/11 07:47:03;;;;;;;11.35;9.75;;;;;;;-2.10;83.74;99649.07;1784145;79;20917;-59
2021/03/11 07:49:32;;;;;;;13.03;10.60;;;;;;;-2.09;83.86;99650.77;1752036;80;21381;-60
2021/03/11 07:52:01;;;;;;;12.28;10.48;;;;;;;-2.07;83.87;99651.97;1784014;79;21193;-59
2021/03/11 07:54:33;;;;;;;12.07;9.65;;;;;;;-2.10;83.85;99652.14;1776912;79;21112;-60
2021/03/11 07:57:02;;;;;;;11.57;9.23;;;;;;;-2.14;84.02;99661.08;1799985;79;21105;-60
2021/03/11 07:59:30;;;;;;;12.25;10.58;;;;;;;-2.17;83.76;99660.78;1790413;79;20981;-59
2021/03/11 08:02:08;;;;;;;12.82;10.85;;;;;;;-2.19;83.77;99647.46;1783988;79;21284;-59
2021/03/11 08:04:42;;;;;;;11.88;9.78;;;;;;;-2.16;84.00;99668.11;1780611;79;21116;-60
2021/03/11 08:07:25;;;;;;;11.55;10.35;;;;;;;-2.11;83.67;99647.88;1799225;79;21068;-59
2021/03/11 08:09:57;;;;;;;10.50;9.38;;;;;;;-2.07;83.32;99651.97;1779515;79;21125;-60
2021/03/11 08:12:37;;;;;;;12.33;10.08;;;;;;;-2.06;83.14;99642.74;1732932;80;21118;-59
2021/03/11 08:15:18;;;;;;;14.53;11.12;;;;;;;-2.06;83.18;99653.17;1790224;78;21937;-59
2021/03/11 08:17:47;;;;;;;13.00;9.88;;;;;;;-2.04;83.26;99642.67;1800280;79;21190;-61
2021/03/11 08:20:30;;;;;;;11.35;9.73;;;;;;;-2.04;83.31;99642.67;1804232;79;21110;-60
2021/03/11 08:23:01;;;;;;;11.38;10.28;;;;;;;-2.04;83.30;99644.83;1776026;79;21442;-62
2021/03/11 08:25:38;;;;;;;12.00;10.05;;;;;;;-2.01;83.11;99630.77;1782729;79;21159;-59
2021/03/11 08:28:15;;;;;;;12.00;9.53;;;;;;;-2.01;83.18;99644.63;1792690;79;21426;-58
2021/03/11 08:30:52;;;;;;;12.10;9.80;;;;;;;-2.00;82.64;99631.12;1739540;81;21056;-59
2021/03/11 08:33:25;;;;;;;12.58;10.32;;;;;;;-2.01;82.31;99622.95;1813649;79;21560;-60
2021/03/11 08:35:57;;;;;;;11.78;10.40;;;;;;;-2.03;82.27;99631.30;1784780;79;21072;-59
2021/03/11 08:38:32;;;;;;;13.25;10.63;;;;;;;-2.01;82.38;99622.95;1798012;79;21578;-59
2021/03/11 08:41:04;;;;;;;13.93;11.08;;;;;;;-1.99;82.36;99632.82;1798231;77;22193;-57
2021/03/11 08:43:42;;;;;;;10.85;9.73;;;;;;;-1.97;82.29;99630.95;1792450;77;20961;-60
2021/03/11 08:46:16;;;;;;;12.50;10.18;;;;;;;-1.95;82.49;99631.25;1793804;77;20954;-60
2021/03/11 08:48:50;;;;;;;11.12;9.98;;;;;;;-1.90;82.38;99637.48;1795292;77;21105;-58
2021/03/11 08:51:24;;;;;;;14.20;11.00;;;;;;;-1.84;82.19;99628.48;1795260;77;21163;-59
2021/03/11 08:53:56;;;;;;;12.40;10.48;;;;;;;-1.84;81.60;99635.84;1803925;79;21377;-60
2021/03/11 08:56:32;;;;;;;11.12;9.78;;;;;;;-1.81;81.40;99630.45;1788003;77;21128;-60
2021/03/11 08:59:05;;;;;;;10.58;9.45;;;;;;;-1.80;81.35;99626.92;1745241;80;21136;-59
2021/03/11 09:01:45;;;;;;;12.18;9.90;;;;;;;-1.79;80.87;99614.24;1793107;77;21160;-59
2021/03/11 09:04:27;;;;;;;11.95;9.65;;;;;;;-1.77;80.92;99622.81;1781287;77;21183;-59
2021/03/11 09:07:05;;;;;;;10.43;9.35;;;;;;;-1.75;80.73;99624.89;1792191;77;22215;-60
2021/03/11 09:09:44;;;;;;;10.25;8.90;;;;;;;-1.66;80.90;99624.79;1792128;79;21139;-59
2021/03/11 09:12:31;;;;;;;10.20;9.00;;;;;;;-1.52;80.35;99627.44;1791961;77;21124;-60
2021/03/11 09:15:00;;;;;;;10.63;9.28;;;;;;;-1.38;79.74;99621.75;1788326;79;21084;-60
2021/03/11 09:17:30;;;;;;;13.08;10.15;;;;;;;-1.23;79.27;99630.91;1790125;79;21120;-59
2021/03/11 09:20:10;;;;;;;10.93;9.83;;;;;;;-1.14;78.92;99622.05;1792131;77;21372;-61
2021/03/11 09:22:48;;;;;;;12.53;9.93;;;;;;;-1.05;78.79;99627.17;1775546;79;20966;-60
2021/03/11 09:25:21;;;;;;;9.30;8.30;;;;;;;-0.95;78.00;99618.69;1764124;79;20969;-59
2021/03/11 09:27:56;;;;;;;11.73;9.63;;;;;;;-0.90;76.75;99636.22;1795830;78;21484;-58
2021/03/11 09:30:36;;;;;;;12.75;9.55;;;;;;;-0.92;76.65;99632.86;1762923;79;21091;-60
2021/03/11 09:33:17;;;;;;;10.70;9.48;;;;;;;-0.91;77.20;99633.22;1771295;79;21528;-60
2021/03/11 09:35:44;;;;;;;10.13;9.05;;;;;;;-0.86;77.15;99616.80;1785345;79;21013;-58
2021/03/11 09:38:19;;;;;;;13.00;8.90;;;;;;;-0.75;76.98;99613.51;1789266;79;21044;-60
2021/03/11 09:40:56;;;;;;;14.93;10.68;;;;;;;-0.62;76.73;99608.73;1795757;79;21134;-58
2021/03/11 09:43:35;;;;;;;10.45;8.88;;;;;;;-0.54;75.69;99617.39;1763348;79;21170;-60
2021/03/11 09:46:13;;;;;;;17.02;10.00;;;;;;;-0.54;75.49;99608.24;1771076;79;22265;-59
2021/03/11 09:48:48;;;;;;;11.15;10.05;;;;;;;-0.58;75.46;99610.69;1784093;79;20937;-60
2021/03/11 09:51:27;;;;;;;12.98;9.40;;;;;;;-0.63;75.73;99606.23;1787871;79;21029;-60
2021/03/11 09:56:43;;;;;;;12.20;11.00;;;;;;;-0.65;75.17;99605.46;1814184;78;27954;-59
2021/03/11 09:59:14;;;;;;;12.55;10.85;;;;;;;-0.68;74.80;99603.88;1806701;79;21480;-58
2021/03/11 10:01:45;;;;;;;14.87;9.55;;;;;;;-0.70;74.91;99615.36;1781354;79;21327;-58
2021/03/11 10:04:21;;;;;;;12.68;9.93;;;;;;;-0.72;75.08;99599.80;1801815;79;21038;-60
2021/03/11 10:07:00;;;;;;;10.93;9.80;;;;;;;-0.71;74.57;99626.77;1784751;79;21053;-60
2021/03/11 10:09:38;;;;;;;12.98;10.10;;;;;;;-0.66;74.75;99618.17;1749979;80;20934;-60
2021/03/11 10:12:08;;;;;;;11.80;10.32;;;;;;;-0.58;74.16;99618.99;1746768;81;21118;-60
2021/03/11 10:14:35;;;;;;;13.32;10.68;;;;;;;-0.49;73.70;99618.39;1729115;80;21418;-60
2021/03/11 10:17:05;;;;;;;11.00;9.00;;;;;;;-0.43;74.04;99603.17;1723353;81;21066;-60
2021/03/11 10:19:35;;;;;;;13.75;9.20;;;;;;;-0.29;73.73;99599.22;1727145;81;21761;-58
2021/03/11 10:22:10;;;;;;;11.80;10.00;;;;;;;-0.14;73.31;99601.29;1747587;80;21183;-59
2021/03/11 10:24:49;;;;;;;11.08;8.88;;;;;;;-0.07;72.65;99589.02;1743708;80;20943;-58
2021/03/11 10:27:28;;;;;;;10.32;8.60;;;;;;;-0.03;72.01;99618.44;1734265;80;21345;-59
2021/03/11 10:30:30;;;;;;;12.15;10.13;;;;;;;-0.01;71.82;99587.31;1734213;80;21016;-59
2021/03/11 10:33:02;;;;;;;12.58;10.05;;;;;;;-0.01;71.63;99591.70;1714775;81;20908;-58
2021/03/11 10:35:39;;;;;;;11.97;9.58;;;;;;;0.00;71.35;99577.70;1734275;80;21524;-59
2021/03/11 10:38:21;;;;;;;13.08;9.98;;;;;;;0.06;71.27;99584.27;1734204;81;21037;-61
2021/03/11 10:40:49;;;;;;;11.12;9.30;;;;;;;0.13;71.30;99565.94;1734477;79;21221;-59
2021/03/11 10:43:23;;;;;;;11.33;9.55;;;;;;;0.22;71.19;99569.23;1753212;79;21590;-61
2021/03/11 10:45:51;;;;;;;12.03;9.73;;;;;;;0.23;70.24;99590.08;1743523;80;20949;-60
2021/03/11 10:48:18;;;;;;;12.98;9.50;;;;;;;0.17;70.42;99566.09;1749295;82;20899;-60
2021/03/11 10:50:49;;;;;;;13.20;9.25;;;;;;;0.24;70.64;99568.65;1756857;80;21014;-59
2021/03/11 10:53:19;;;;;;;10.63;9.63;;;;;;;0.40;70.83;99563.59;1742150;82;21472;-60
2021/03/11 10:55:47;;;;;;;13.60;10.32;;;;;;;0.63;69.81;99572.48;1780624;80;21033;-60
2021/03/11 10:58:26;;;;;;;11.97;9.33;;;;;;;0.85;68.90;99547.80;1765885;80;21114;-60
2021/03/11 11:01:15;;;;;;;12.82;9.45;;;;;;;1.01;68.60;99559.34;1758984;80;20962;-59
2021/03/11 11:03:42;;;;;;;11.10;8.68;;;;;;;1.16;66.62;99559.56;1749620;81;21053;-61
2021/03/11 11:06:10;;;;;;;9.85;8.70;;;;;;;1.14;65.89;99550.52;1772533;80;21342;-62
2021/03/11 11:08:44;;;;;;;9.93;8.65;;;;;;;1.13;66.09;99535.73;1741599;81;21025;-58
2021/03/11 11:11:13;;;;;;;10.30;9.23;;;;;;;1.16;66.00;99542.53;1793584;78;20990;-58
2021/03/11 11:13:42;;;;;;;15.45;8.83;;;;;;;1.14;65.80;99540.50;1749132;81;21113;-60
2021/03/11 11:16:13;;;;;;;14.85;9.63;;;;;;;1.11;65.56;99531.08;1749310;80;21152;-61
2021/03/11 11:18:42;;;;;;;9.78;8.80;;;;;;;1.10;65.58;99539.87;1784131;79;21376;-58
2021/03/11 11:21:10;;;;;;;10.40;8.55;;;;;;;1.20;64.98;99530.87;1784022;78;21196;-59
2021/03/11 11:23:37;;;;;;;9.85;8.45;;;;;;;1.31;64.70;99520.92;1784108;79;21049;-58
2021/03/11 11:26:05;;;;;;;15.53;8.98;;;;;;;1.32;64.30;99513.44;1749299;80;20997;-60
2021/03/11 11:28:32;;;;;;;11.90;9.73;;;;;;;1.31;64.48;99507.81;1715782;82;21151;-60
2021/03/11 11:31:00;;;;;;;10.30;9.13;;;;;;;1.23;64.50;99503.98;1733544;80;21370;-59
2021/03/11 11:33:28;;;;;;;12.00;9.50;;;;;;;1.16;64.66;99502.75;1792866;78;20951;-59
2021/03/11 11:35:56;;;;;;;13.70;8.93;;;;;;;1.29;64.92;99499.23;1783988;79;20997;-58
2021/03/11 11:38:23;;;;;;;10.88;9.78;;;;;;;1.52;63.17;99486.12;1784081;79;21041;-59
2021/03/11 11:40:52;;;;;;;12.37;9.43;;;;;;;1.72;64.15;99467.11;1811425;77;20911;-60
2021/03/11 11:43:19;;;;;;;12.93;8.40;;;;;;;2.02;62.67;99474.47;1802395;78;21351;-58